Аэропорт: Игнатьево. Благовещенск

ICAO: UHBB

METAR:
2021-10-23 00:30:00
UHBB 230030Z 27003MPS 9999 FEW033 07/M03 Q1018 R36/090060 NOSIG RMK QFE746/0994
METAR:
2021-10-22 22:39:00
TAF UHBB 222239Z 2300/2324 27003G08MPS CAVOK